Hovedside
METAR-TAF:

METAR-TAF

Lufthavner :

Incheon internasjonale lufthavn

Seoul-Incheon, Sør-Korea

breddegrad: 37-28N, lengdegrad: 126-27E, høyde over havet: 7 m

Gjeldene værobservasjon

Denne rapporten ble laget for 25 minutter siden, klokken 15:30 UTC
Vind 4 kt fra Nordøst
Temperatur 0°C
Luftfuktighet 55%
Trykk 1033 hPa
Sikt 10 km eller mer
ingen skyer under 1500 m og ingen bygeskyer

METAR: RKSI 201530Z 04004KT CAVOK 00/M08 Q1033 NOSIG

Tid: 00:55 (15:55 UTC)

Varsel

Denne rapporten ble laget for 4 timer og 55 minutter siden, klokken 11:00 UTC
Varsel gyldig fra 20. klokken 12 UTC til 21. klokken 18 UTC
Vind 5 kt fra Øst-nordøst
Sikt 10 km eller mer
ingen skyer under 1500 m og ingen bygeskyer
Midlertidig
fra 21. klokken 10 UTC til 21. klokken 17 UTC
Vind 7 kt fra Øst-sørøst
Sikt 10 km eller mer
Få skyer i en høyde av 3000 ft

TAF: RKSI 201100Z 2012/2118 06005KT CAVOK TNM01/2022Z TX09/2105Z TEMPO 2110/2117 12007KT 9999 FEW030

Værobservasjoner og værvarsel for over 4000 flyplasser (METAR- og TAF-rapporter).

Tilgjengelige stasjoner er representert av de røde og gule prikkene på kartet.

Hold musepekeren over prikken for å se navnet på stasjonen.

Klikk så for å se værobservasjoner og -varsler.

For å forandre kartet kan du klikke på den grønne knappen med svart kryss for å zoome inn, på den grønne knappen med strek for å zoome ut, eller på de grønne pilene for å se tilstøtende kart.


METAR-TAF: